createdAt,value
2023-01-20T00:04:14.109Z,56.97
2023-01-20T00:06:50.919Z,57.28
2023-01-20T00:10:15.500Z,65.40
2023-01-20T00:12:56.663Z,59.40
2023-01-20T00:24:19.481Z,64.18
2023-01-20T00:26:56.715Z,58.97
2023-01-20T00:34:00.133Z,68.05
2023-01-20T00:36:59.422Z,63.45
2023-01-20T00:43:56.611Z,61.20
2023-01-20T00:46:24.645Z,61.10
2023-01-20T00:48:55.362Z,57.97
2023-01-20T00:51:34.796Z,60.58
2023-01-20T00:54:06.718Z,67.30
2023-01-20T00:56:37.520Z,60.60
2023-01-20T00:59:06.091Z,62.20
2023-01-20T01:01:36.277Z,64.00
2023-01-20T01:04:05.713Z,67.57
2023-01-20T01:06:33.171Z,63.47
2023-01-20T01:09:02.060Z,60.70
2023-01-20T01:11:57.362Z,57.25
2023-01-20T01:14:30.952Z,58.17
2023-01-20T01:17:01.053Z,58.13
2023-01-20T01:19:28.832Z,56.55
2023-01-20T01:22:01.665Z,63.92
2023-01-20T01:24:31.122Z,65.18
2023-01-20T01:27:04.676Z,53.83
2023-01-20T01:29:31.917Z,55.05
2023-01-20T01:31:59.138Z,55.08
2023-01-20T01:34:27.099Z,69.30
2023-01-20T01:36:56.587Z,62.20
2023-01-20T01:42:23.175Z,60.85
2023-01-20T01:45:11.038Z,49.30
2023-01-20T01:47:59.768Z,59.10
2023-01-20T01:50:39.255Z,70.53
2023-01-20T01:53:07.582Z,67.18
2023-01-20T01:55:42.600Z,64.03
2023-01-20T01:58:17.399Z,56.53
2023-01-20T02:00:47.950Z,69.70
2023-01-20T02:03:15.163Z,57.85
2023-01-20T02:05:49.371Z,62.03
2023-01-20T02:08:17.873Z,62.30
2023-01-20T02:10:48.007Z,66.28
2023-01-20T02:13:16.282Z,60.58
2023-01-20T02:16:24.261Z,64.28
2023-01-20T02:19:20.229Z,64.15
2023-01-20T02:22:27.582Z,64.32
2023-01-20T02:25:03.765Z,70.03
2023-01-20T02:27:46.785Z,63.38
2023-01-20T02:30:46.527Z,75.47
2023-01-20T02:33:30.443Z,46.00
2023-01-20T02:36:53.842Z,63.13
2023-01-20T02:39:51.925Z,68.03
2023-01-20T02:42:33.013Z,56.45
2023-01-20T02:45:44.932Z,63.67
2023-01-20T02:48:24.557Z,60.28
2023-01-20T02:51:13.545Z,56.42
2023-01-20T02:53:59.123Z,60.85
2023-01-20T02:56:31.964Z,58.67
2023-01-20T02:59:11.206Z,55.97
2023-01-20T03:01:55.759Z,55.58
2023-01-20T03:04:30.477Z,59.22
2023-01-20T03:07:00.842Z,58.08
2023-01-20T03:09:41.965Z,57.40
2023-01-20T03:12:26.323Z,56.03
2023-01-20T03:14:54.999Z,58.33
2023-01-20T03:17:32.798Z,60.38
2023-01-20T03:20:02.789Z,59.33
2023-01-20T03:22:34.160Z,65.20
2023-01-20T03:25:04.222Z,66.13
2023-01-20T03:27:33.254Z,66.55
2023-01-20T03:30:42.767Z,62.95
2023-01-20T03:33:36.807Z,59.50
2023-01-20T03:36:04.669Z,57.05
2023-01-20T03:38:34.142Z,65.85
2023-01-20T03:41:17.346Z,62.35
2023-01-20T03:44:23.364Z,70.68
2023-01-20T03:47:18.125Z,61.95
2023-01-20T03:49:57.255Z,61.13
2023-01-20T03:53:05.169Z,65.88
2023-01-20T04:08:47.113Z,41.05
2023-01-20T04:11:22.424Z,71.38
2023-01-20T04:14:09.422Z,49.97
2023-01-20T04:21:10.644Z,56.00
2023-01-20T04:24:09.090Z,55.78
2023-01-20T04:26:39.519Z,54.00
2023-01-20T04:29:11.898Z,45.85
2023-01-20T04:31:42.357Z,55.83
2023-01-20T04:34:13.867Z,58.75
2023-01-20T04:36:41.484Z,59.47
2023-01-20T04:39:11.022Z,62.55
2023-01-20T04:46:06.603Z,41.65
2023-01-20T04:48:35.320Z,51.30
2023-01-20T04:51:54.115Z,60.67
2023-01-20T04:54:26.189Z,70.68
2023-01-20T04:59:26.430Z,55.72
2023-01-20T05:01:57.084Z,63.80
2023-01-20T05:04:25.632Z,64.57
2023-01-20T05:06:58.571Z,52.17
2023-01-20T05:13:25.989Z,59.38
2023-01-20T05:15:57.759Z,43.85
2023-01-20T05:18:28.691Z,60.92
2023-01-20T05:20:59.744Z,53.78
2023-01-20T05:23:30.049Z,54.80
2023-01-20T05:25:57.732Z,67.32
2023-01-20T05:28:30.088Z,64.65
2023-01-20T05:31:23.694Z,64.30
2023-01-20T05:36:20.636Z,58.55
2023-01-20T05:38:49.013Z,65.65
2023-01-20T05:41:16.563Z,64.57
2023-01-20T05:43:45.871Z,60.70
2023-01-20T05:46:18.086Z,59.85
2023-01-20T05:48:45.281Z,56.92
2023-01-20T05:51:13.655Z,58.05
2023-01-20T05:53:40.848Z,63.25
2023-01-20T05:56:09.535Z,62.33
2023-01-20T05:58:40.324Z,60.45
2023-01-20T06:01:10.927Z,36.72
2023-01-20T06:03:51.202Z,55.25
2023-01-20T06:06:19.631Z,58.83
2023-01-20T06:08:46.936Z,56.75
2023-01-20T06:11:15.729Z,59.78
2023-01-20T06:13:43.654Z,53.47
2023-01-20T06:16:10.824Z,56.17
2023-01-20T06:18:39.610Z,54.53
2023-01-20T06:21:07.842Z,51.15
2023-01-20T06:23:36.049Z,44.00
2023-01-20T06:26:06.452Z,47.33
2023-01-20T06:28:36.302Z,43.95
2023-01-20T06:31:14.561Z,49.05
2023-01-20T06:33:42.502Z,49.38
2023-01-20T06:36:13.925Z,59.35
2023-01-20T06:38:42.733Z,55.78
2023-01-20T06:41:11.304Z,47.90
2023-01-20T06:43:42.785Z,55.03
2023-01-20T06:46:15.125Z,53.47
2023-01-20T06:48:45.867Z,45.50
2023-01-20T06:51:20.682Z,60.95
2023-01-20T06:53:48.125Z,57.03
2023-01-20T06:56:16.085Z,52.97
2023-01-20T06:58:43.050Z,57.67
2023-01-20T07:01:15.895Z,60.50
2023-01-20T07:03:43.695Z,33.65
2023-01-20T07:06:20.221Z,58.90
2023-01-20T07:08:47.251Z,56.75
2023-01-20T07:11:14.199Z,59.85
2023-01-20T07:13:42.385Z,42.35
2023-01-20T07:16:12.621Z,49.95
2023-01-20T07:18:41.795Z,61.60
2023-01-20T07:21:12.113Z,46.80
2023-01-20T07:23:39.469Z,50.28
2023-01-20T07:26:14.418Z,31.05
2023-01-20T07:28:42.539Z,54.55
2023-01-20T07:31:18.685Z,55.80
2023-01-20T07:33:47.156Z,56.33
2023-01-20T07:36:16.033Z,56.13
2023-01-20T07:38:43.404Z,61.50
2023-01-20T07:41:15.952Z,49.00
2023-01-20T07:43:47.867Z,46.42
2023-01-20T07:46:17.799Z,30.20
2023-01-20T07:48:44.670Z,53.22
2023-01-20T07:51:14.974Z,47.35
2023-01-20T07:53:47.243Z,58.33
2023-01-20T07:56:17.948Z,45.13
2023-01-20T07:58:45.512Z,64.03
2023-01-20T08:01:16.512Z,47.95
2023-01-20T08:03:44.323Z,50.03
2023-01-20T08:06:13.977Z,49.88
2023-01-20T08:08:43.093Z,50.72
2023-01-20T08:11:13.663Z,55.78
2023-01-20T08:13:44.252Z,53.03
2023-01-20T08:16:12.961Z,36.72
2023-01-20T08:18:39.917Z,35.28
2023-01-20T08:21:17.000Z,48.35
2023-01-20T08:23:44.127Z,40.03
2023-01-20T08:26:37.235Z,43.45
2023-01-20T08:29:09.456Z,46.50
2023-01-20T08:31:37.677Z,50.95
2023-01-20T08:34:05.163Z,51.00
2023-01-20T08:36:35.231Z,40.22
2023-01-20T08:39:05.222Z,35.70
2023-01-20T08:41:57.193Z,36.45
2023-01-20T08:44:27.546Z,38.15
2023-01-20T08:46:58.193Z,45.63
2023-01-20T08:49:26.617Z,46.58
2023-01-20T08:51:53.743Z,41.78
2023-01-20T08:54:21.696Z,31.35
2023-01-20T08:56:52.883Z,36.80
2023-01-20T08:59:20.530Z,36.83
2023-01-20T09:01:48.946Z,44.47
2023-01-20T09:04:18.168Z,38.72
2023-01-20T09:06:48.504Z,46.05
2023-01-20T09:09:18.184Z,41.35
2023-01-20T09:11:50.688Z,42.15
2023-01-20T09:16:49.110Z,32.63
2023-01-20T09:19:16.486Z,29.27
2023-01-20T09:21:44.399Z,37.08
2023-01-20T09:24:11.885Z,37.65
2023-01-20T09:26:39.061Z,38.85
2023-01-20T09:29:10.382Z,34.70
2023-01-20T09:31:51.776Z,41.35
2023-01-20T09:34:27.461Z,38.95
2023-01-20T09:36:58.648Z,31.25
2023-01-20T09:39:44.270Z,38.65
2023-01-20T09:43:07.997Z,21.58
2023-01-20T09:48:48.015Z,25.83
2023-01-20T09:51:42.981Z,27.80
2023-01-20T09:54:37.568Z,24.38
2023-01-20T09:57:08.608Z,32.20
2023-01-20T09:59:50.760Z,26.85
2023-01-20T10:02:24.116Z,30.95
2023-01-20T10:05:17.167Z,26.23
2023-01-20T10:10:28.751Z,34.03
2023-01-20T10:13:01.727Z,34.80
2023-01-20T10:15:36.784Z,30.35
2023-01-20T10:18:06.407Z,23.33
2023-01-20T10:20:39.395Z,36.38
2023-01-20T10:23:22.475Z,29.65
2023-01-20T10:25:57.534Z,23.00
2023-01-20T10:28:30.543Z,30.80
2023-01-20T10:31:04.173Z,36.65
2023-01-20T10:33:38.818Z,16.98
2023-01-20T10:36:16.750Z,28.35
2023-01-20T10:38:54.320Z,36.38
2023-01-20T10:41:49.043Z,23.83
2023-01-20T10:44:16.983Z,26.02
2023-01-20T10:47:18.133Z,28.25
2023-01-20T10:50:14.182Z,29.63
2023-01-20T10:53:11.845Z,29.90
2023-01-20T10:56:22.537Z,32.33
2023-01-20T10:58:56.767Z,27.67
2023-01-20T11:01:25.129Z,31.40
2023-01-20T11:03:54.107Z,25.58
2023-01-20T11:06:25.501Z,29.60
2023-01-20T11:08:55.342Z,27.98
2023-01-20T11:11:25.626Z,26.83
2023-01-20T11:13:55.009Z,25.88
2023-01-20T11:16:25.740Z,24.02
2023-01-20T11:18:58.988Z,32.85
2023-01-20T11:21:29.479Z,21.23
2023-01-20T11:23:58.244Z,29.67
2023-01-20T11:26:32.536Z,26.42
2023-01-20T11:29:19.849Z,24.73
2023-01-20T11:31:49.472Z,23.65
2023-01-20T11:34:28.481Z,27.63
2023-01-20T11:37:06.397Z,26.27
2023-01-20T11:39:56.209Z,28.17
2023-01-20T11:42:36.717Z,25.00
2023-01-20T11:45:20.787Z,23.13
2023-01-20T11:48:04.525Z,28.25
2023-01-20T11:50:54.369Z,24.80
2023-01-20T11:53:26.554Z,23.60
2023-01-20T11:56:05.283Z,28.13
2023-01-20T11:58:48.509Z,22.15
2023-01-20T12:01:31.346Z,26.17
2023-01-20T12:04:20.150Z,26.83
2023-01-20T12:07:11.673Z,26.05
2023-01-20T12:09:47.189Z,33.90
2023-01-20T12:12:23.514Z,23.45
2023-01-20T12:15:01.320Z,20.55
2023-01-20T12:17:30.986Z,27.98
2023-01-20T12:20:17.876Z,30.75
2023-01-20T12:23:01.349Z,17.55
2023-01-20T12:25:36.876Z,22.13
2023-01-20T12:28:18.668Z,27.42
2023-01-20T12:31:12.736Z,25.50
2023-01-20T12:33:43.553Z,18.05
2023-01-20T12:36:41.312Z,27.25
2023-01-20T12:39:21.452Z,24.38
2023-01-20T12:42:05.936Z,26.35
2023-01-20T12:44:47.717Z,16.92
2023-01-20T12:47:52.305Z,21.05
2023-01-20T12:50:36.981Z,17.83
2023-01-20T12:53:25.467Z,21.40
2023-01-20T12:56:08.154Z,23.30
2023-01-20T12:58:53.867Z,20.52
2023-01-20T13:01:56.255Z,33.67
2023-01-20T13:04:47.041Z,22.00
2023-01-20T13:07:23.557Z,23.70
2023-01-20T13:10:50.933Z,24.45
2023-01-20T13:13:55.860Z,20.67
2023-01-20T13:17:05.606Z,17.67
2023-01-20T13:19:43.075Z,18.00
2023-01-20T13:22:20.806Z,17.42
2023-01-20T13:24:53.623Z,21.10
2023-01-20T13:27:37.799Z,21.27
2023-01-20T13:30:08.534Z,18.08
2023-01-20T13:32:43.782Z,21.10
2023-01-20T13:35:34.256Z,23.70
2023-01-20T13:38:04.052Z,20.23
2023-01-20T13:40:47.203Z,12.98
2023-01-20T13:43:32.385Z,20.65
2023-01-20T13:46:03.736Z,21.95
2023-01-20T13:48:34.989Z,25.60
2023-01-20T13:51:26.854Z,21.15
2023-01-20T13:54:15.189Z,15.60
2023-01-20T13:56:45.903Z,28.02
2023-01-20T13:59:16.051Z,20.58
2023-01-20T14:01:47.146Z,20.92
2023-01-20T14:04:21.777Z,23.10
2023-01-20T14:06:51.837Z,13.50
2023-01-20T14:09:25.355Z,18.98
2023-01-20T14:11:58.184Z,16.45
2023-01-20T14:14:28.650Z,20.83
2023-01-20T14:17:01.198Z,26.70
2023-01-20T14:19:32.434Z,23.90
2023-01-20T14:22:04.370Z,17.92
2023-01-20T14:24:36.510Z,20.52
2023-01-20T14:27:59.831Z,20.10
2023-01-20T14:30:30.332Z,19.25
2023-01-20T14:33:26.807Z,17.40
2023-01-20T14:35:54.005Z,17.58
2023-01-20T14:38:22.654Z,19.17
2023-01-20T14:40:50.261Z,15.00
2023-01-20T14:43:20.285Z,16.38
2023-01-20T14:45:54.214Z,29.42
2023-01-20T14:48:33.926Z,15.70
2023-01-20T14:51:04.392Z,14.00
2023-01-20T14:53:31.552Z,15.63
2023-01-20T14:56:16.878Z,14.60
2023-01-20T14:58:49.097Z,10.32
2023-01-20T15:01:23.547Z,15.15
2023-01-20T15:03:59.216Z,10.32
2023-01-20T15:06:27.639Z,12.05
2023-01-20T15:09:28.474Z,10.98
2023-01-20T15:12:42.637Z,16.17
2023-01-20T15:15:22.994Z,13.52
2023-01-20T15:18:21.470Z,10.90
2023-01-20T15:21:11.748Z,11.20
2023-01-20T15:23:51.210Z,13.68
2023-01-20T15:26:28.950Z,9.20
2023-01-20T15:28:59.392Z,14.63
2023-01-20T15:31:26.700Z,15.70
2023-01-20T15:34:08.454Z,12.23
2023-01-20T15:36:37.337Z,16.48
2023-01-20T15:39:06.407Z,11.98
2023-01-20T15:41:40.854Z,12.00
2023-01-20T15:44:37.302Z,8.70
2023-01-20T15:47:34.737Z,14.77
2023-01-20T15:50:54.529Z,11.40
2023-01-20T15:53:21.563Z,12.65
2023-01-20T15:55:51.893Z,17.85
2023-01-20T15:58:32.832Z,18.58
2023-01-20T16:01:01.015Z,19.52
2023-01-20T16:03:33.701Z,16.52
2023-01-20T16:06:02.621Z,11.40
2023-01-20T16:08:38.076Z,16.52
2023-01-20T16:11:08.100Z,16.75
2023-01-20T16:13:35.757Z,20.13
2023-01-20T16:19:06.940Z,20.30
2023-01-20T16:21:37.508Z,15.85
2023-01-20T16:24:05.881Z,15.02
2023-01-20T16:26:34.741Z,17.02
2023-01-20T16:29:06.343Z,19.35
2023-01-20T16:31:34.440Z,24.08
2023-01-20T16:34:04.516Z,22.27
2023-01-20T16:36:32.899Z,26.20
2023-01-20T16:39:01.066Z,28.50
2023-01-20T16:41:33.428Z,20.92
2023-01-20T16:44:04.301Z,20.67
2023-01-20T16:46:36.221Z,16.95
2023-01-20T16:49:04.033Z,16.00
2023-01-20T16:51:33.575Z,19.02
2023-01-20T16:54:02.167Z,15.90
2023-01-20T16:56:35.412Z,16.20
2023-01-20T16:59:09.913Z,8.23
2023-01-20T17:04:24.026Z,12.27
2023-01-20T17:06:55.726Z,12.00
2023-01-20T17:09:26.447Z,7.83
2023-01-20T17:11:56.559Z,10.80
2023-01-20T17:14:25.673Z,11.80
2023-01-20T17:16:53.953Z,7.57
2023-01-20T17:19:21.083Z,8.63
2023-01-20T17:21:48.674Z,10.30
2023-01-20T17:24:17.671Z,9.38
2023-01-20T17:26:48.219Z,12.35
2023-01-20T17:29:21.883Z,13.13
2023-01-20T17:31:50.684Z,14.00
2023-01-20T17:34:25.312Z,11.13
2023-01-20T17:36:52.837Z,10.10
2023-01-20T17:39:22.918Z,8.85
2023-01-20T17:41:54.369Z,9.68
2023-01-20T17:44:26.076Z,12.25
2023-01-20T17:46:55.353Z,8.17
2023-01-20T17:49:28.933Z,10.13
2023-01-20T17:51:55.970Z,11.90
2023-01-20T17:54:27.846Z,23.77
2023-01-20T17:56:55.352Z,20.05
2023-01-20T17:59:24.150Z,21.45
2023-01-20T18:01:57.312Z,39.35
2023-01-20T18:04:24.838Z,26.30
2023-01-20T18:06:52.353Z,15.43
2023-01-20T18:09:19.503Z,13.20
2023-01-20T18:11:52.081Z,14.50
2023-01-20T18:14:20.716Z,21.92
2023-01-20T18:16:52.304Z,14.10
2023-01-20T18:19:21.818Z,20.75
2023-01-20T18:21:49.788Z,18.90
2023-01-20T18:24:18.627Z,18.05
2023-01-20T18:26:46.547Z,22.60
2023-01-20T18:29:17.863Z,18.90
2023-01-20T18:31:49.919Z,14.57
2023-01-20T18:34:19.553Z,12.65
2023-01-20T18:36:48.438Z,10.25
2023-01-20T18:39:19.095Z,9.15
2023-01-20T18:41:48.273Z,11.55
2023-01-20T18:44:15.926Z,10.95
2023-01-20T18:49:35.366Z,8.00
2023-01-20T18:58:10.970Z,10.82
2023-01-20T19:34:30.087Z,16.17
2023-01-20T19:37:23.549Z,15.00
2023-01-20T19:39:51.945Z,15.07
2023-01-20T19:45:10.641Z,19.40
2023-01-20T19:47:38.160Z,23.83
2023-01-20T19:50:10.324Z,23.85
2023-01-20T19:52:41.562Z,25.70
2023-01-20T19:55:34.331Z,29.40
2023-01-20T19:58:01.450Z,28.25
2023-01-20T20:00:33.932Z,34.90
2023-01-20T20:03:05.037Z,38.80
2023-01-20T20:05:44.625Z,35.47
2023-01-20T20:08:21.372Z,42.60
2023-01-20T20:10:48.820Z,48.75
2023-01-20T20:16:07.553Z,41.13
2023-01-20T20:18:35.027Z,38.70
2023-01-20T20:21:02.057Z,43.78
2023-01-20T20:23:31.639Z,47.38
2023-01-20T20:26:01.103Z,49.95
2023-01-20T20:28:36.936Z,55.08
2023-01-20T20:31:11.360Z,54.35
2023-01-20T20:33:49.133Z,59.85
2023-01-20T20:36:17.278Z,57.20
2023-01-20T20:38:51.376Z,51.63
2023-01-20T20:41:23.070Z,53.25
2023-01-20T20:43:54.249Z,49.40
2023-01-20T20:46:25.948Z,46.22
2023-01-20T20:49:02.546Z,42.83
2023-01-20T20:51:34.466Z,41.75
2023-01-20T20:54:03.177Z,43.25
2023-01-20T20:56:34.084Z,41.90
2023-01-20T20:59:03.797Z,33.53
2023-01-20T21:01:37.243Z,31.70
2023-01-20T21:04:04.897Z,33.13
2023-01-20T21:06:38.837Z,36.55
2023-01-20T21:09:07.174Z,32.58
2023-01-20T21:11:34.219Z,34.95
2023-01-20T21:14:03.364Z,33.97
2023-01-20T21:16:38.110Z,32.33
2023-01-20T21:19:06.174Z,34.25
2023-01-20T21:21:33.275Z,32.58
2023-01-20T21:24:01.282Z,30.58
2023-01-20T21:26:31.134Z,29.70
2023-01-20T21:29:02.801Z,27.60
2023-01-20T21:31:37.011Z,33.15
2023-01-20T21:34:09.161Z,28.90
2023-01-20T21:36:44.156Z,35.28
2023-01-20T21:39:14.391Z,31.73
2023-01-20T21:41:44.516Z,32.97
2023-01-20T21:44:41.639Z,34.83
2023-01-20T21:47:09.410Z,33.10
2023-01-20T21:49:55.941Z,32.28
2023-01-20T21:52:42.266Z,38.88
2023-01-20T21:55:21.937Z,42.28
2023-01-20T21:57:52.379Z,40.67
2023-01-20T22:00:22.066Z,44.38
2023-01-20T22:02:57.098Z,34.80
2023-01-20T22:05:49.909Z,42.55
2023-01-20T22:13:37.896Z,43.80
2023-01-20T22:16:32.840Z,45.72
2023-01-20T22:19:34.914Z,32.85
2023-01-20T22:22:06.513Z,39.10
2023-01-20T22:24:49.356Z,39.88
2023-01-20T22:27:17.333Z,42.45
2023-01-20T22:29:50.675Z,40.80
2023-01-20T22:32:22.995Z,42.97
2023-01-20T22:34:57.808Z,41.35
2023-01-20T22:37:27.922Z,36.97
2023-01-20T22:39:56.930Z,37.70
2023-01-20T22:42:29.179Z,37.72
2023-01-20T22:47:41.135Z,43.55
2023-01-20T22:50:09.378Z,41.00
2023-01-20T22:52:37.602Z,42.28
2023-01-20T22:55:07.111Z,44.83
2023-01-20T22:57:38.090Z,43.65
2023-01-20T23:00:13.108Z,43.58
2023-01-20T23:02:40.797Z,44.35
2023-01-20T23:05:12.472Z,46.60
2023-01-20T23:07:43.641Z,45.07
2023-01-20T23:10:34.549Z,48.13
2023-01-20T23:13:07.929Z,45.20
2023-01-20T23:15:40.455Z,47.15
2023-01-20T23:20:40.427Z,51.03
2023-01-20T23:23:13.629Z,46.60
2023-01-20T23:25:44.359Z,48.88
2023-01-20T23:28:15.080Z,48.00
2023-01-20T23:30:44.198Z,45.97
2023-01-20T23:37:14.731Z,43.65
2023-01-20T23:39:44.558Z,52.17
2023-01-20T23:42:13.916Z,51.53
2023-01-20T23:44:44.705Z,53.83
2023-01-20T23:47:13.141Z,55.88
2023-01-20T23:49:45.112Z,49.33
2023-01-20T23:53:26.683Z,51.63
2023-01-20T23:56:50.309Z,61.72
